createdAt,value
2022-08-03T00:07:53.465Z,3.5
2022-08-03T00:19:53.545Z,4.9
2022-08-03T00:32:00.189Z,4.9
2022-08-03T00:43:53.478Z,4.9
2022-08-03T00:55:53.442Z,3.2
2022-08-03T01:07:53.465Z,3.2
2022-08-03T01:19:53.470Z,3.1
2022-08-03T01:33:02.785Z,3.1
2022-08-03T01:44:26.193Z,3.1
2022-08-03T01:55:53.472Z,3.1
2022-08-03T02:07:53.451Z,3.1
2022-08-03T02:19:53.466Z,3.3
2022-08-03T02:31:53.457Z,3.3
2022-08-03T02:44:07.222Z,3.3
2022-08-03T02:55:53.472Z,3.6
2022-08-03T03:07:53.485Z,3.6
2022-08-03T03:19:53.530Z,3.5
2022-08-03T03:31:53.507Z,3.5
2022-08-03T03:43:53.511Z,3.5
2022-08-03T03:55:59.530Z,3.9
2022-08-03T04:07:53.450Z,3.9
2022-08-03T04:19:53.477Z,3.0
2022-08-03T04:31:53.455Z,3.0
2022-08-03T04:43:53.466Z,3.0
2022-08-03T04:55:53.434Z,4.8
2022-08-03T05:07:53.436Z,4.8
2022-08-03T05:19:53.410Z,4.2
2022-08-03T05:31:53.444Z,4.2
2022-08-03T05:43:53.462Z,4.2
2022-08-03T05:55:56.975Z,4.2
2022-08-03T06:07:53.456Z,4.2
2022-08-03T06:19:53.472Z,4.6
2022-08-03T06:31:53.462Z,4.6
2022-08-03T06:44:03.928Z,4.6
2022-08-03T06:55:54.882Z,5.4
2022-08-03T07:07:53.457Z,5.4
2022-08-03T07:19:53.490Z,4.5
2022-08-03T07:31:53.453Z,4.5
2022-08-03T07:43:53.454Z,4.5
2022-08-03T07:55:53.470Z,3.5
2022-08-03T08:07:53.453Z,3.5
2022-08-03T08:19:53.614Z,3.4
2022-08-03T08:31:53.462Z,3.4
2022-08-03T08:43:58.126Z,3.4
2022-08-03T08:55:59.365Z,3.7
2022-08-03T09:07:53.456Z,3.7
2022-08-03T09:20:03.609Z,4.3
2022-08-03T09:31:53.457Z,4.3
2022-08-03T09:43:53.459Z,4.3
2022-08-03T09:56:33.220Z,4.9
2022-08-03T10:07:53.460Z,4.9
2022-08-03T10:19:53.467Z,3.4
2022-08-03T10:31:57.282Z,3.4
2022-08-03T10:43:53.471Z,3.4
2022-08-03T10:55:53.460Z,3.2
2022-08-03T11:07:54.767Z,3.2
2022-08-03T11:19:57.662Z,4.0
2022-08-03T11:31:53.459Z,4.0
2022-08-03T11:43:53.466Z,4.0
2022-08-03T11:55:53.449Z,3.2
2022-08-03T12:08:04.421Z,3.2
2022-08-03T12:19:53.479Z,4.2
2022-08-03T12:31:53.407Z,4.2
2022-08-03T12:43:53.470Z,4.2
2022-08-03T12:55:57.662Z,5.7
2022-08-03T13:07:53.459Z,5.7
2022-08-03T13:19:53.484Z,45.4
2022-08-03T13:31:53.688Z,45.4
2022-08-03T13:44:12.063Z,45.4
2022-08-03T13:55:53.439Z,36.2
2022-08-03T14:07:55.134Z,36.2
2022-08-03T14:19:54.138Z,32.6
2022-08-03T14:32:09.642Z,32.6
2022-08-03T14:44:01.333Z,32.6
2022-08-03T14:55:53.532Z,24.9
2022-08-03T15:07:53.452Z,24.9
2022-08-03T15:20:02.165Z,23.8
2022-08-03T15:31:53.478Z,23.8
2022-08-03T15:43:53.430Z,23.8
2022-08-03T15:55:53.466Z,18.8
2022-08-03T16:08:02.825Z,18.8
2022-08-03T16:19:55.127Z,19.8
2022-08-03T16:31:53.447Z,19.8
2022-08-03T16:43:53.459Z,19.8
2022-08-03T16:55:54.373Z,15.7
2022-08-03T17:07:54.054Z,15.7
2022-08-03T17:19:55.173Z,13.3
2022-08-03T17:31:53.463Z,13.3
2022-08-03T17:44:15.738Z,13.3
2022-08-03T17:55:59.070Z,10.7
2022-08-03T18:07:59.505Z,10.7
2022-08-03T18:20:03.343Z,7.5
2022-08-03T18:32:01.532Z,7.5
2022-08-03T18:44:06.730Z,7.5
2022-08-03T18:56:01.857Z,5.4
2022-08-03T19:07:58.354Z,5.4
2022-08-03T19:19:53.464Z,4.8
2022-08-03T19:31:58.783Z,4.8
2022-08-03T19:43:57.681Z,4.8
2022-08-03T19:55:53.454Z,3.9
2022-08-03T20:07:53.465Z,3.9
2022-08-03T20:19:53.465Z,4.0
2022-08-03T20:31:53.439Z,4.0
2022-08-03T20:43:53.474Z,4.0
2022-08-03T20:56:02.175Z,3.4
2022-08-03T21:08:05.549Z,3.4
2022-08-03T21:19:53.522Z,4.5
2022-08-03T21:31:53.509Z,4.5
2022-08-03T21:43:53.500Z,4.5
2022-08-03T21:55:53.498Z,3.3
2022-08-03T22:07:53.568Z,3.3
2022-08-03T22:19:53.494Z,3.6
2022-08-03T22:31:58.916Z,3.6
2022-08-03T22:43:54.272Z,3.6
2022-08-03T22:55:53.493Z,3.2
2022-08-03T23:07:53.496Z,3.2
2022-08-03T23:19:53.735Z,3.2
2022-08-03T23:31:53.550Z,3.2
2022-08-03T23:43:54.370Z,3.2
2022-08-03T23:55:53.453Z,3.3
